sensor_id;sensor_type;location;lat;lon;timestamp;temperature;humidity
19968;DHT22;10145;49.152;9.282;2023-09-19T00:01:18;15.70;99.90
19968;DHT22;10145;49.152;9.282;2023-09-19T00:03:45;15.70;99.90
19968;DHT22;10145;49.152;9.282;2023-09-19T00:06:11;15.80;99.90
19968;DHT22;10145;49.152;9.282;2023-09-19T00:08:41;15.70;99.90
19968;DHT22;10145;49.152;9.282;2023-09-19T00:11:09;15.80;99.90
19968;DHT22;10145;49.152;9.282;2023-09-19T00:13:36;15.80;99.90
19968;DHT22;10145;49.152;9.282;2023-09-19T00:16:08;15.80;99.90
19968;DHT22;10145;49.152;9.282;2023-09-19T00:18:36;15.90;99.90
19968;DHT22;10145;49.152;9.282;2023-09-19T00:21:02;15.90;99.90
19968;DHT22;10145;49.152;9.282;2023-09-19T00:23:30;15.80;99.90
19968;DHT22;10145;49.152;9.282;2023-09-19T00:25:59;15.80;99.90
19968;DHT22;10145;49.152;9.282;2023-09-19T00:28:25;15.80;99.90
19968;DHT22;10145;49.152;9.282;2023-09-19T00:30:51;15.90;99.90
19968;DHT22;10145;49.152;9.282;2023-09-19T00:33:17;15.80;99.90
19968;DHT22;10145;49.152;9.282;2023-09-19T00:36:02;15.80;99.90
19968;DHT22;10145;49.152;9.282;2023-09-19T00:38:30;15.60;99.90
19968;DHT22;10145;49.152;9.282;2023-09-19T00:40:57;15.60;99.90
19968;DHT22;10145;49.152;9.282;2023-09-19T00:43:23;15.50;99.90
19968;DHT22;10145;49.152;9.282;2023-09-19T00:45:51;15.50;99.90
19968;DHT22;10145;49.152;9.282;2023-09-19T00:48:20;15.40;99.90
19968;DHT22;10145;49.152;9.282;2023-09-19T00:50:47;15.50;99.90
19968;DHT22;10145;49.152;9.282;2023-09-19T00:53:17;15.50;99.90
19968;DHT22;10145;49.152;9.282;2023-09-19T00:55:44;15.50;99.90
19968;DHT22;10145;49.152;9.282;2023-09-19T00:58:10;15.70;99.90
19968;DHT22;10145;49.152;9.282;2023-09-19T01:00:37;15.70;99.90
19968;DHT22;10145;49.152;9.282;2023-09-19T01:03:03;15.80;99.90
19968;DHT22;10145;49.152;9.282;2023-09-19T01:05:30;15.90;99.90
19968;DHT22;10145;49.152;9.282;2023-09-19T01:07:55;16.00;99.90
19968;DHT22;10145;49.152;9.282;2023-09-19T01:10:21;16.00;99.90
19968;DHT22;10145;49.152;9.282;2023-09-19T01:13:11;16.00;99.90
19968;DHT22;10145;49.152;9.282;2023-09-19T01:15:51;16.00;99.90
19968;DHT22;10145;49.152;9.282;2023-09-19T01:21:04;16.10;99.90
19968;DHT22;10145;49.152;9.282;2023-09-19T01:29:38;16.10;99.90
19968;DHT22;10145;49.152;9.282;2023-09-19T01:32:06;16.20;99.90
19968;DHT22;10145;49.152;9.282;2023-09-19T01:34:46;16.20;99.90
19968;DHT22;10145;49.152;9.282;2023-09-19T01:37:13;16.10;99.90
19968;DHT22;10145;49.152;9.282;2023-09-19T01:39:40;16.20;99.90
19968;DHT22;10145;49.152;9.282;2023-09-19T01:42:20;16.10;99.90
19968;DHT22;10145;49.152;9.282;2023-09-19T01:50:42;16.00;99.90
19968;DHT22;10145;49.152;9.282;2023-09-19T01:52:48;16.10;99.90
19968;DHT22;10145;49.152;9.282;2023-09-19T01:55:16;16.10;99.90
19968;DHT22;10145;49.152;9.282;2023-09-19T01:58:01;16.10;99.90
19968;DHT22;10145;49.152;9.282;2023-09-19T02:00:33;16.10;99.90
19968;DHT22;10145;49.152;9.282;2023-09-19T02:03:00;16.10;99.90
19968;DHT22;10145;49.152;9.282;2023-09-19T02:05:28;16.00;99.90
19968;DHT22;10145;49.152;9.282;2023-09-19T02:07:53;16.00;99.90
19968;DHT22;10145;49.152;9.282;2023-09-19T02:10:20;16.00;99.90
19968;DHT22;10145;49.152;9.282;2023-09-19T02:12:45;16.00;99.90
19968;DHT22;10145;49.152;9.282;2023-09-19T02:15:12;16.00;99.90
19968;DHT22;10145;49.152;9.282;2023-09-19T02:17:38;15.90;99.90
19968;DHT22;10145;49.152;9.282;2023-09-19T02:20:04;15.90;99.90
19968;DHT22;10145;49.152;9.282;2023-09-19T02:22:36;16.00;99.90
19968;DHT22;10145;49.152;9.282;2023-09-19T02:25:02;15.90;99.90
19968;DHT22;10145;49.152;9.282;2023-09-19T02:27:30;15.80;99.90
19968;DHT22;10145;49.152;9.282;2023-09-19T02:29:56;15.70;99.90
19968;DHT22;10145;49.152;9.282;2023-09-19T02:32:21;15.60;99.90
19968;DHT22;10145;49.152;9.282;2023-09-19T02:34:48;15.60;99.90
19968;DHT22;10145;49.152;9.282;2023-09-19T02:37:14;15.70;99.90
19968;DHT22;10145;49.152;9.282;2023-09-19T02:39:41;15.70;99.90
19968;DHT22;10145;49.152;9.282;2023-09-19T02:42:07;15.60;99.90
19968;DHT22;10145;49.152;9.282;2023-09-19T02:44:33;15.60;99.90
19968;DHT22;10145;49.152;9.282;2023-09-19T02:46:59;15.60;99.90
19968;DHT22;10145;49.152;9.282;2023-09-19T02:49:24;15.60;99.90
19968;DHT22;10145;49.152;9.282;2023-09-19T02:51:50;15.60;99.90
19968;DHT22;10145;49.152;9.282;2023-09-19T02:54:17;15.80;99.90
19968;DHT22;10145;49.152;9.282;2023-09-19T02:56:43;16.00;99.90
19968;DHT22;10145;49.152;9.282;2023-09-19T02:59:09;16.00;99.90
19968;DHT22;10145;49.152;9.282;2023-09-19T03:01:36;16.10;99.90
19968;DHT22;10145;49.152;9.282;2023-09-19T03:04:03;16.10;99.90
19968;DHT22;10145;49.152;9.282;2023-09-19T03:06:28;16.10;99.90
19968;DHT22;10145;49.152;9.282;2023-09-19T03:08:56;16.20;99.90
19968;DHT22;10145;49.152;9.282;2023-09-19T03:11:22;16.20;99.90
19968;DHT22;10145;49.152;9.282;2023-09-19T03:13:52;16.20;99.90
19968;DHT22;10145;49.152;9.282;2023-09-19T03:16:19;16.20;99.90
19968;DHT22;10145;49.152;9.282;2023-09-19T03:18:47;16.30;99.90
19968;DHT22;10145;49.152;9.282;2023-09-19T03:21:15;16.30;99.90
19968;DHT22;10145;49.152;9.282;2023-09-19T03:23:40;16.40;99.90
19968;DHT22;10145;49.152;9.282;2023-09-19T03:26:06;16.40;99.90
19968;DHT22;10145;49.152;9.282;2023-09-19T03:28:33;16.40;99.90
19968;DHT22;10145;49.152;9.282;2023-09-19T03:31:00;16.40;99.90
19968;DHT22;10145;49.152;9.282;2023-09-19T03:33:26;16.50;99.90
19968;DHT22;10145;49.152;9.282;2023-09-19T03:35:53;16.40;99.90
19968;DHT22;10145;49.152;9.282;2023-09-19T03:38:19;16.50;99.90
19968;DHT22;10145;49.152;9.282;2023-09-19T03:40:45;16.50;99.90
19968;DHT22;10145;49.152;9.282;2023-09-19T03:43:10;16.50;99.90
19968;DHT22;10145;49.152;9.282;2023-09-19T03:45:36;16.60;99.90
19968;DHT22;10145;49.152;9.282;2023-09-19T03:48:11;16.50;99.90
19968;DHT22;10145;49.152;9.282;2023-09-19T03:50:37;16.50;99.90
19968;DHT22;10145;49.152;9.282;2023-09-19T03:53:03;16.60;99.90
19968;DHT22;10145;49.152;9.282;2023-09-19T03:55:29;16.50;99.90
19968;DHT22;10145;49.152;9.282;2023-09-19T03:57:58;16.50;99.90
19968;DHT22;10145;49.152;9.282;2023-09-19T04:00:23;16.50;99.90
19968;DHT22;10145;49.152;9.282;2023-09-19T04:02:52;16.50;99.90
19968;DHT22;10145;49.152;9.282;2023-09-19T04:05:18;16.40;99.90
19968;DHT22;10145;49.152;9.282;2023-09-19T04:07:44;16.50;99.90
19968;DHT22;10145;49.152;9.282;2023-09-19T04:10:10;16.50;99.90
19968;DHT22;10145;49.152;9.282;2023-09-19T04:12:40;16.50;99.90
19968;DHT22;10145;49.152;9.282;2023-09-19T04:15:06;16.50;99.90
19968;DHT22;10145;49.152;9.282;2023-09-19T04:17:32;16.50;99.90
19968;DHT22;10145;49.152;9.282;2023-09-19T04:20:00;16.50;99.90
19968;DHT22;10145;49.152;9.282;2023-09-19T04:22:26;16.50;99.90
19968;DHT22;10145;49.152;9.282;2023-09-19T04:24:51;16.50;99.90
19968;DHT22;10145;49.152;9.282;2023-09-19T04:27:17;16.50;99.90
19968;DHT22;10145;49.152;9.282;2023-09-19T04:29:44;16.60;99.90
19968;DHT22;10145;49.152;9.282;2023-09-19T04:32:10;16.40;99.90
19968;DHT22;10145;49.152;9.282;2023-09-19T04:34:36;16.50;99.90
19968;DHT22;10145;49.152;9.282;2023-09-19T04:37:02;16.40;99.90
19968;DHT22;10145;49.152;9.282;2023-09-19T04:39:28;16.40;99.90
19968;DHT22;10145;49.152;9.282;2023-09-19T04:41:54;16.40;99.90
19968;DHT22;10145;49.152;9.282;2023-09-19T04:44:20;16.40;99.90
19968;DHT22;10145;49.152;9.282;2023-09-19T04:46:46;16.40;99.90
19968;DHT22;10145;49.152;9.282;2023-09-19T04:49:12;16.40;99.90
19968;DHT22;10145;49.152;9.282;2023-09-19T04:51:38;16.40;99.90
19968;DHT22;10145;49.152;9.282;2023-09-19T04:54:05;16.40;99.90
19968;DHT22;10145;49.152;9.282;2023-09-19T04:56:31;16.30;99.90
19968;DHT22;10145;49.152;9.282;2023-09-19T04:59:00;16.30;99.90
19968;DHT22;10145;49.152;9.282;2023-09-19T05:01:26;16.40;99.90
19968;DHT22;10145;49.152;9.282;2023-09-19T05:03:52;16.40;99.90
19968;DHT22;10145;49.152;9.282;2023-09-19T05:06:21;16.40;99.90
19968;DHT22;10145;49.152;9.282;2023-09-19T05:08:50;16.40;99.90
19968;DHT22;10145;49.152;9.282;2023-09-19T05:11:20;16.40;99.90
19968;DHT22;10145;49.152;9.282;2023-09-19T05:13:50;16.40;99.90
19968;DHT22;10145;49.152;9.282;2023-09-19T05:16:16;16.40;99.90
19968;DHT22;10145;49.152;9.282;2023-09-19T05:18:42;16.40;99.90
19968;DHT22;10145;49.152;9.282;2023-09-19T05:21:08;16.50;99.90
19968;DHT22;10145;49.152;9.282;2023-09-19T05:23:33;16.50;99.90
19968;DHT22;10145;49.152;9.282;2023-09-19T05:25:59;16.60;99.90
19968;DHT22;10145;49.152;9.282;2023-09-19T05:28:25;16.50;99.90
19968;DHT22;10145;49.152;9.282;2023-09-19T05:30:52;16.50;99.90
19968;DHT22;10145;49.152;9.282;2023-09-19T05:33:18;16.50;99.90
19968;DHT22;10145;49.152;9.282;2023-09-19T05:35:44;16.50;99.90
19968;DHT22;10145;49.152;9.282;2023-09-19T05:38:13;16.60;99.90
19968;DHT22;10145;49.152;9.282;2023-09-19T05:40:40;16.60;99.90
19968;DHT22;10145;49.152;9.282;2023-09-19T05:43:08;16.70;99.90
19968;DHT22;10145;49.152;9.282;2023-09-19T05:45:34;16.70;99.90
19968;DHT22;10145;49.152;9.282;2023-09-19T05:48:14;16.80;99.90
19968;DHT22;10145;49.152;9.282;2023-09-19T05:50:40;16.70;99.90
19968;DHT22;10145;49.152;9.282;2023-09-19T05:53:06;16.70;99.90
19968;DHT22;10145;49.152;9.282;2023-09-19T05:55:32;16.80;99.90
19968;DHT22;10145;49.152;9.282;2023-09-19T05:57:58;16.80;99.90
19968;DHT22;10145;49.152;9.282;2023-09-19T06:00:25;16.90;99.90
19968;DHT22;10145;49.152;9.282;2023-09-19T06:02:53;16.80;99.90
19968;DHT22;10145;49.152;9.282;2023-09-19T06:05:19;16.70;99.90
19968;DHT22;10145;49.152;9.282;2023-09-19T06:07:45;16.80;99.90
19968;DHT22;10145;49.152;9.282;2023-09-19T06:10:12;16.80;99.90
19968;DHT22;10145;49.152;9.282;2023-09-19T06:12:41;16.80;99.90
19968;DHT22;10145;49.152;9.282;2023-09-19T06:15:12;16.80;99.90
19968;DHT22;10145;49.152;9.282;2023-09-19T06:17:47;16.90;99.90
19968;DHT22;10145;49.152;9.282;2023-09-19T06:20:14;16.90;99.90
19968;DHT22;10145;49.152;9.282;2023-09-19T06:22:44;17.10;99.90
19968;DHT22;10145;49.152;9.282;2023-09-19T06:25:11;17.20;99.90
19968;DHT22;10145;49.152;9.282;2023-09-19T06:27:40;17.30;99.90
19968;DHT22;10145;49.152;9.282;2023-09-19T06:30:10;17.40;99.90
19968;DHT22;10145;49.152;9.282;2023-09-19T06:32:42;17.50;99.90
19968;DHT22;10145;49.152;9.282;2023-09-19T06:35:12;17.50;99.90
19968;DHT22;10145;49.152;9.282;2023-09-19T06:37:38;17.50;99.90
19968;DHT22;10145;49.152;9.282;2023-09-19T06:42:32;17.50;99.90
19968;DHT22;10145;49.152;9.282;2023-09-19T06:44:58;17.50;99.90
19968;DHT22;10145;49.152;9.282;2023-09-19T06:47:23;17.70;99.90
19968;DHT22;10145;49.152;9.282;2023-09-19T06:49:51;17.50;99.90
19968;DHT22;10145;49.152;9.282;2023-09-19T06:52:17;17.60;99.90
19968;DHT22;10145;49.152;9.282;2023-09-19T06:54:45;17.60;99.90
19968;DHT22;10145;49.152;9.282;2023-09-19T06:57:10;17.60;99.90
19968;DHT22;10145;49.152;9.282;2023-09-19T06:59:36;17.70;99.90
19968;DHT22;10145;49.152;9.282;2023-09-19T07:02:02;17.60;99.90
19968;DHT22;10145;49.152;9.282;2023-09-19T07:04:28;17.60;99.90
19968;DHT22;10145;49.152;9.282;2023-09-19T07:06:54;17.60;99.90
19968;DHT22;10145;49.152;9.282;2023-09-19T07:09:19;17.60;99.90
19968;DHT22;10145;49.152;9.282;2023-09-19T07:11:45;17.70;99.90
19968;DHT22;10145;49.152;9.282;2023-09-19T07:14:11;17.70;99.90
19968;DHT22;10145;49.152;9.282;2023-09-19T07:16:37;17.80;99.90
19968;DHT22;10145;49.152;9.282;2023-09-19T07:19:04;17.80;99.90
19968;DHT22;10145;49.152;9.282;2023-09-19T07:21:30;17.80;99.90
19968;DHT22;10145;49.152;9.282;2023-09-19T07:23:56;17.90;99.90
19968;DHT22;10145;49.152;9.282;2023-09-19T07:26:21;17.90;99.90
19968;DHT22;10145;49.152;9.282;2023-09-19T07:28:47;17.90;99.90
19968;DHT22;10145;49.152;9.282;2023-09-19T07:31:12;17.80;99.90
19968;DHT22;10145;49.152;9.282;2023-09-19T07:33:39;17.60;99.90
19968;DHT22;10145;49.152;9.282;2023-09-19T07:36:05;17.50;99.90
19968;DHT22;10145;49.152;9.282;2023-09-19T07:38:31;17.40;99.90
19968;DHT22;10145;49.152;9.282;2023-09-19T07:41:01;17.30;99.90
19968;DHT22;10145;49.152;9.282;2023-09-19T07:43:28;17.40;99.90
19968;DHT22;10145;49.152;9.282;2023-09-19T07:45:53;17.40;99.90
19968;DHT22;10145;49.152;9.282;2023-09-19T07:48:19;17.40;99.90
19968;DHT22;10145;49.152;9.282;2023-09-19T07:50:44;17.60;99.90
19968;DHT22;10145;49.152;9.282;2023-09-19T07:53:11;17.70;99.90
19968;DHT22;10145;49.152;9.282;2023-09-19T07:55:39;17.80;99.90
19968;DHT22;10145;49.152;9.282;2023-09-19T07:58:06;17.90;99.90
19968;DHT22;10145;49.152;9.282;2023-09-19T08:00:32;18.00;99.90
19968;DHT22;10145;49.152;9.282;2023-09-19T08:03:00;18.10;99.90
19968;DHT22;10145;49.152;9.282;2023-09-19T08:05:26;18.10;99.90
19968;DHT22;10145;49.152;9.282;2023-09-19T08:07:52;18.30;99.90
19968;DHT22;10145;49.152;9.282;2023-09-19T08:10:19;18.40;99.90
19968;DHT22;10145;49.152;9.282;2023-09-19T08:12:46;18.40;99.90
19968;DHT22;10145;49.152;9.282;2023-09-19T08:15:17;18.40;99.90
19968;DHT22;10145;49.152;9.282;2023-09-19T08:17:43;18.40;99.90
19968;DHT22;10145;49.152;9.282;2023-09-19T08:20:09;18.30;99.90
19968;DHT22;10145;49.152;9.282;2023-09-19T08:22:48;18.40;99.90
19968;DHT22;10145;49.152;9.282;2023-09-19T08:25:15;18.40;99.90
19968;DHT22;10145;49.152;9.282;2023-09-19T08:27:45;18.50;99.90
19968;DHT22;10145;49.152;9.282;2023-09-19T08:30:24;18.60;99.90
19968;DHT22;10145;49.152;9.282;2023-09-19T08:33:02;19.00;99.90
19968;DHT22;10145;49.152;9.282;2023-09-19T08:35:30;19.10;99.90
19968;DHT22;10145;49.152;9.282;2023-09-19T08:37:56;19.30;99.90
19968;DHT22;10145;49.152;9.282;2023-09-19T08:40:22;19.40;99.90
19968;DHT22;10145;49.152;9.282;2023-09-19T08:42:55;19.40;99.90
19968;DHT22;10145;49.152;9.282;2023-09-19T08:45:21;19.60;99.90
19968;DHT22;10145;49.152;9.282;2023-09-19T08:50:28;19.90;99.90
19968;DHT22;10145;49.152;9.282;2023-09-19T08:52:56;19.80;99.90
19968;DHT22;10145;49.152;9.282;2023-09-19T08:55:27;20.00;99.90
19968;DHT22;10145;49.152;9.282;2023-09-19T08:58:00;20.20;99.90
19968;DHT22;10145;49.152;9.282;2023-09-19T09:00:28;20.00;99.90
19968;DHT22;10145;49.152;9.282;2023-09-19T09:02:55;20.10;99.90
19968;DHT22;10145;49.152;9.282;2023-09-19T09:05:22;19.80;99.90
19968;DHT22;10145;49.152;9.282;2023-09-19T09:07:49;20.00;99.90
19968;DHT22;10145;49.152;9.282;2023-09-19T09:10:20;19.90;99.90
19968;DHT22;10145;49.152;9.282;2023-09-19T09:12:52;19.70;99.90
19968;DHT22;10145;49.152;9.282;2023-09-19T09:15:23;19.60;99.90
19968;DHT22;10145;49.152;9.282;2023-09-19T09:17:52;19.90;99.90
19968;DHT22;10145;49.152;9.282;2023-09-19T09:20:21;19.80;99.90
19968;DHT22;10145;49.152;9.282;2023-09-19T09:22:54;19.70;99.90
19968;DHT22;10145;49.152;9.282;2023-09-19T09:25:21;20.00;99.90
19968;DHT22;10145;49.152;9.282;2023-09-19T09:28:07;20.20;99.90
19968;DHT22;10145;49.152;9.282;2023-09-19T09:30:36;20.40;99.90
19968;DHT22;10145;49.152;9.282;2023-09-19T09:33:10;20.70;99.90
19968;DHT22;10145;49.152;9.282;2023-09-19T09:38:19;21.30;99.90
19968;DHT22;10145;49.152;9.282;2023-09-19T09:40:49;21.40;99.90
19968;DHT22;10145;49.152;9.282;2023-09-19T09:46:13;21.90;99.90
19968;DHT22;10145;49.152;9.282;2023-09-19T09:51:40;21.30;99.90
19968;DHT22;10145;49.152;9.282;2023-09-19T09:54:29;21.10;99.90
19968;DHT22;10145;49.152;9.282;2023-09-19T09:57:09;20.80;99.90
19968;DHT22;10145;49.152;9.282;2023-09-19T10:02:17;21.00;99.90
19968;DHT22;10145;49.152;9.282;2023-09-19T10:05:16;20.80;99.90
19968;DHT22;10145;49.152;9.282;2023-09-19T10:07:54;20.50;99.90
19968;DHT22;10145;49.152;9.282;2023-09-19T10:10:40;20.80;99.90
19968;DHT22;10145;49.152;9.282;2023-09-19T10:13:19;20.80;99.90
19968;DHT22;10145;49.152;9.282;2023-09-19T10:15:50;20.80;99.90
19968;DHT22;10145;49.152;9.282;2023-09-19T10:18:22;20.90;99.90
19968;DHT22;10145;49.152;9.282;2023-09-19T10:20:48;20.90;99.90
19968;DHT22;10145;49.152;9.282;2023-09-19T10:23:17;21.00;99.90
19968;DHT22;10145;49.152;9.282;2023-09-19T10:25:48;20.90;99.90
19968;DHT22;10145;49.152;9.282;2023-09-19T10:28:15;21.10;99.90
19968;DHT22;10145;49.152;9.282;2023-09-19T10:33:13;21.20;99.90
19968;DHT22;10145;49.152;9.282;2023-09-19T10:35:42;21.00;99.90
19968;DHT22;10145;49.152;9.282;2023-09-19T10:38:10;21.20;99.90
19968;DHT22;10145;49.152;9.282;2023-09-19T10:40:37;21.10;99.90
19968;DHT22;10145;49.152;9.282;2023-09-19T10:43:15;21.10;99.90
19968;DHT22;10145;49.152;9.282;2023-09-19T10:45:44;21.30;99.90
19968;DHT22;10145;49.152;9.282;2023-09-19T10:48:10;21.60;99.90
19968;DHT22;10145;49.152;9.282;2023-09-19T10:50:43;21.80;99.90
19968;DHT22;10145;49.152;9.282;2023-09-19T10:53:11;21.80;99.90
19968;DHT22;10145;49.152;9.282;2023-09-19T10:55:38;21.70;99.90
19968;DHT22;10145;49.152;9.282;2023-09-19T10:58:05;21.40;99.90
19968;DHT22;10145;49.152;9.282;2023-09-19T11:01:00;21.10;99.90
19968;DHT22;10145;49.152;9.282;2023-09-19T11:03:38;20.70;99.90
19968;DHT22;10145;49.152;9.282;2023-09-19T11:06:16;20.60;99.90
19968;DHT22;10145;49.152;9.282;2023-09-19T11:09:00;20.80;99.90
19968;DHT22;10145;49.152;9.282;2023-09-19T11:11:44;20.80;99.90
19968;DHT22;10145;49.152;9.282;2023-09-19T11:30:48;21.10;99.90
19968;DHT22;10145;49.152;9.282;2023-09-19T11:46:17;22.70;97.00
19968;DHT22;10145;49.152;9.282;2023-09-19T11:48:48;23.20;96.80
19968;DHT22;10145;49.152;9.282;2023-09-19T11:53:46;23.30;94.50
19968;DHT22;10145;49.152;9.282;2023-09-19T11:56:19;23.40;95.00
19968;DHT22;10145;49.152;9.282;2023-09-19T11:58:46;23.50;94.00
19968;DHT22;10145;49.152;9.282;2023-09-19T12:01:13;23.30;94.80
19968;DHT22;10145;49.152;9.282;2023-09-19T12:03:43;23.10;95.20
19968;DHT22;10145;49.152;9.282;2023-09-19T12:06:16;23.30;95.40
19968;DHT22;10145;49.152;9.282;2023-09-19T12:08:44;23.30;95.00
19968;DHT22;10145;49.152;9.282;2023-09-19T12:11:13;23.50;94.70
19968;DHT22;10145;49.152;9.282;2023-09-19T12:13:45;23.40;95.20
19968;DHT22;10145;49.152;9.282;2023-09-19T12:16:21;23.10;94.60
19968;DHT22;10145;49.152;9.282;2023-09-19T12:18:47;22.40;94.80
19968;DHT22;10145;49.152;9.282;2023-09-19T12:21:31;22.20;96.50
19968;DHT22;10145;49.152;9.282;2023-09-19T12:24:04;22.00;96.50
19968;DHT22;10145;49.152;9.282;2023-09-19T12:26:40;22.40;95.90
19968;DHT22;10145;49.152;9.282;2023-09-19T12:29:17;22.70;95.00
19968;DHT22;10145;49.152;9.282;2023-09-19T12:31:54;22.80;95.30
19968;DHT22;10145;49.152;9.282;2023-09-19T12:34:30;22.90;94.50
19968;DHT22;10145;49.152;9.282;2023-09-19T12:37:06;23.30;94.30
19968;DHT22;10145;49.152;9.282;2023-09-19T12:39:45;23.20;93.90
19968;DHT22;10145;49.152;9.282;2023-09-19T12:42:23;23.40;93.50
19968;DHT22;10145;49.152;9.282;2023-09-19T12:44:51;22.90;93.30
19968;DHT22;10145;49.152;9.282;2023-09-19T12:47:27;22.80;94.30
19968;DHT22;10145;49.152;9.282;2023-09-19T12:50:13;23.00;94.10
19968;DHT22;10145;49.152;9.282;2023-09-19T12:52:47;23.40;93.60
19968;DHT22;10145;49.152;9.282;2023-09-19T12:55:40;23.80;92.50
19968;DHT22;10145;49.152;9.282;2023-09-19T12:58:14;23.50;92.80
19968;DHT22;10145;49.152;9.282;2023-09-19T13:00:44;23.70;94.30
19968;DHT22;10145;49.152;9.282;2023-09-19T13:03:26;23.80;92.50
19968;DHT22;10145;49.152;9.282;2023-09-19T13:05:56;23.80;93.50
19968;DHT22;10145;49.152;9.282;2023-09-19T13:08:37;23.70;91.70
19968;DHT22;10145;49.152;9.282;2023-09-19T13:11:17;24.00;92.00
19968;DHT22;10145;49.152;9.282;2023-09-19T13:14:01;23.80;91.30
19968;DHT22;10145;49.152;9.282;2023-09-19T13:17:06;24.00;92.90
19968;DHT22;10145;49.152;9.282;2023-09-19T13:19:45;24.30;93.00
19968;DHT22;10145;49.152;9.282;2023-09-19T13:22:42;24.40;92.40
19968;DHT22;10145;49.152;9.282;2023-09-19T13:25:13;24.20;91.30
19968;DHT22;10145;49.152;9.282;2023-09-19T13:27:45;24.20;91.80
19968;DHT22;10145;49.152;9.282;2023-09-19T13:30:14;23.90;90.20
19968;DHT22;10145;49.152;9.282;2023-09-19T13:32:41;23.80;90.30
19968;DHT22;10145;49.152;9.282;2023-09-19T13:35:08;24.00;91.10
19968;DHT22;10145;49.152;9.282;2023-09-19T13:37:39;24.00;90.10
19968;DHT22;10145;49.152;9.282;2023-09-19T13:40:11;24.20;89.70
19968;DHT22;10145;49.152;9.282;2023-09-19T13:42:38;24.30;89.60
19968;DHT22;10145;49.152;9.282;2023-09-19T13:45:04;24.40;88.20
19968;DHT22;10145;49.152;9.282;2023-09-19T13:47:30;24.50;88.40
19968;DHT22;10145;49.152;9.282;2023-09-19T13:49:56;24.30;90.90
19968;DHT22;10145;49.152;9.282;2023-09-19T13:52:22;24.30;87.20
19968;DHT22;10145;49.152;9.282;2023-09-19T13:54:52;24.20;90.00
19968;DHT22;10145;49.152;9.282;2023-09-19T13:57:18;24.50;86.70
19968;DHT22;10145;49.152;9.282;2023-09-19T13:59:44;24.50;88.60
19968;DHT22;10145;49.152;9.282;2023-09-19T14:02:09;24.80;90.10
19968;DHT22;10145;49.152;9.282;2023-09-19T14:04:35;24.90;90.30
19968;DHT22;10145;49.152;9.282;2023-09-19T14:07:01;25.30;89.10
19968;DHT22;10145;49.152;9.282;2023-09-19T14:09:27;25.40;87.20
19968;DHT22;10145;49.152;9.282;2023-09-19T14:11:52;26.00;83.00
19968;DHT22;10145;49.152;9.282;2023-09-19T14:14:19;26.30;85.30
19968;DHT22;10145;49.152;9.282;2023-09-19T14:16:46;26.80;78.90
19968;DHT22;10145;49.152;9.282;2023-09-19T14:19:11;27.90;80.00
19968;DHT22;10145;49.152;9.282;2023-09-19T14:21:37;28.20;75.00
19968;DHT22;10145;49.152;9.282;2023-09-19T14:24:04;27.90;74.40
19968;DHT22;10145;49.152;9.282;2023-09-19T14:26:38;27.80;74.10
19968;DHT22;10145;49.152;9.282;2023-09-19T14:29:03;27.80;73.10
19968;DHT22;10145;49.152;9.282;2023-09-19T14:31:29;28.00;73.80
19968;DHT22;10145;49.152;9.282;2023-09-19T14:33:55;28.30;75.70
19968;DHT22;10145;49.152;9.282;2023-09-19T14:36:22;28.60;72.30
19968;DHT22;10145;49.152;9.282;2023-09-19T14:38:48;28.60;74.20
19968;DHT22;10145;49.152;9.282;2023-09-19T14:41:19;28.20;72.00
19968;DHT22;10145;49.152;9.282;2023-09-19T14:43:44;28.40;75.80
19968;DHT22;10145;49.152;9.282;2023-09-19T14:46:10;28.80;72.00
19968;DHT22;10145;49.152;9.282;2023-09-19T14:48:36;28.50;74.40
19968;DHT22;10145;49.152;9.282;2023-09-19T14:51:05;28.50;75.30
19968;DHT22;10145;49.152;9.282;2023-09-19T14:53:32;28.90;72.80
19968;DHT22;10145;49.152;9.282;2023-09-19T14:56:02;28.20;70.70
19968;DHT22;10145;49.152;9.282;2023-09-19T14:58:29;27.40;73.10
19968;DHT22;10145;49.152;9.282;2023-09-19T15:01:08;27.20;72.90
19968;DHT22;10145;49.152;9.282;2023-09-19T15:03:35;27.10;74.20
19968;DHT22;10145;49.152;9.282;2023-09-19T15:06:06;27.00;74.70
19968;DHT22;10145;49.152;9.282;2023-09-19T15:08:33;27.10;75.70
19968;DHT22;10145;49.152;9.282;2023-09-19T15:11:00;26.40;74.50
19968;DHT22;10145;49.152;9.282;2023-09-19T15:13:30;26.10;76.00
19968;DHT22;10145;49.152;9.282;2023-09-19T15:16:03;25.90;76.00
19968;DHT22;10145;49.152;9.282;2023-09-19T15:18:31;25.40;77.00
19968;DHT22;10145;49.152;9.282;2023-09-19T15:21:00;25.10;81.00
19968;DHT22;10145;49.152;9.282;2023-09-19T15:23:26;25.20;78.30
19968;DHT22;10145;49.152;9.282;2023-09-19T15:25:51;25.50;78.20
19968;DHT22;10145;49.152;9.282;2023-09-19T15:28:18;25.40;80.70
19968;DHT22;10145;49.152;9.282;2023-09-19T15:30:44;25.50;78.90
19968;DHT22;10145;49.152;9.282;2023-09-19T15:33:09;25.90;77.90
19968;DHT22;10145;49.152;9.282;2023-09-19T15:35:35;25.70;79.10
19968;DHT22;10145;49.152;9.282;2023-09-19T15:38:03;25.30;77.70
19968;DHT22;10145;49.152;9.282;2023-09-19T15:40:29;25.40;79.30
19968;DHT22;10145;49.152;9.282;2023-09-19T15:42:55;25.40;79.00
19968;DHT22;10145;49.152;9.282;2023-09-19T15:45:22;25.30;78.50
19968;DHT22;10145;49.152;9.282;2023-09-19T15:47:48;25.10;78.20
19968;DHT22;10145;49.152;9.282;2023-09-19T15:50:14;24.70;81.80
19968;DHT22;10145;49.152;9.282;2023-09-19T15:52:40;24.50;80.50
19968;DHT22;10145;49.152;9.282;2023-09-19T15:55:08;24.30;81.10
19968;DHT22;10145;49.152;9.282;2023-09-19T15:57:37;24.10;81.50
19968;DHT22;10145;49.152;9.282;2023-09-19T16:00:04;23.90;82.90
19968;DHT22;10145;49.152;9.282;2023-09-19T16:02:35;23.60;82.40
19968;DHT22;10145;49.152;9.282;2023-09-19T16:05:01;23.50;83.60
19968;DHT22;10145;49.152;9.282;2023-09-19T16:07:31;23.40;83.70
19968;DHT22;10145;49.152;9.282;2023-09-19T16:09:56;23.30;84.40
19968;DHT22;10145;49.152;9.282;2023-09-19T16:12:22;23.10;84.40
19968;DHT22;10145;49.152;9.282;2023-09-19T16:14:48;22.80;84.80
19968;DHT22;10145;49.152;9.282;2023-09-19T16:17:14;22.60;85.50
19968;DHT22;10145;49.152;9.282;2023-09-19T16:19:40;22.40;86.90
19968;DHT22;10145;49.152;9.282;2023-09-19T16:22:06;22.30;86.30
19968;DHT22;10145;49.152;9.282;2023-09-19T16:24:31;22.20;86.60
19968;DHT22;10145;49.152;9.282;2023-09-19T16:26:57;22.10;88.80
19968;DHT22;10145;49.152;9.282;2023-09-19T16:29:22;22.00;88.60
19968;DHT22;10145;49.152;9.282;2023-09-19T16:31:49;22.00;89.20
19968;DHT22;10145;49.152;9.282;2023-09-19T16:34:15;21.90;88.80
19968;DHT22;10145;49.152;9.282;2023-09-19T16:36:41;21.70;89.40
19968;DHT22;10145;49.152;9.282;2023-09-19T16:39:06;21.60;90.00
19968;DHT22;10145;49.152;9.282;2023-09-19T16:41:33;21.60;90.70
19968;DHT22;10145;49.152;9.282;2023-09-19T16:44:00;21.40;91.30
19968;DHT22;10145;49.152;9.282;2023-09-19T16:46:26;21.30;90.40